Pendleton, OR (97801)

04:32:PST den 23. januar 2017 (GMT -0800)
Fire and Rescue, Court Street | | Change Station

H.o.h 1066 ft 45.67 °N, 118.80 °W | Updated 7 seconds ago

Clear
Klart
24.1 °F
Feels Like 24 °F
N
0.0
Vind Variabel Vind from NNØ
Gusts 0.0 mph

I dag
High -- | Low -- °F
--% Chance of Precip.
I går
High -- | Low -- °F
Precip. -- tommer
Lufttrykk 29.65 tommer
Sikt 10.0 eng. mil
Skyet Klart
Nedkjølingseffekt 24 °F
Duggpunkt 18 °F
Fuktighet 79%
Regn 0.00 tommer
Snødybde Not available.
7:25 AM 4:49 PM
Minkende sigd, 19% visible
METAR KPDT 231153Z AUTO 07006KT 10SM CLR 00/M03 A2963 RMK AO2 SLP038 T00001028 10006 21011 53002 TSNO
Lufttrykk 29.65 tommer
Sikt 10.0 eng. mil
Skyet Klart
Nedkjølingseffekt 24 °F
Duggpunkt 18 °F
Fuktighet 79%
Regn 0.00 tommer
Snødybde Not available.
7:25 AM 4:49 PM
Minkende sigd, 19% visible
METAR KPDT 231153Z AUTO 07006KT 10SM CLR 00/M03 A2963 RMK AO2 SLP038 T00001028 10006 21011 53002 TSNO

Get Your Daily Forecast Email!

Thanks for signing up!

Be on the lookout for a verification email in your inbox.

You'll start receiving the daily forecast at 8 AM.

×

10-Day Weather Forecast

Almanac

Astronomi

Jan. 23, 2017 Oppgang Nedgang
Virkelig tid
Tussmørke
Nautisk skumring
Astronomisk skumring
Månen
Lengde av synlig lys
Dagens lengde
Tomorrow will be .
, % of the Moon is Illuminated

Dagens maks og min

State Highs State Lows

Community

WunderPhotos

Upload Photos

1,962,540 photos uploaded!

WunderBlog® & News

Nearby

Luftkvalitet

  Luftkvalitet AQ Indeks Forurensing
Not available.

Snødybde

Stasjon Depth Høyde over havet

Earthquake Activity

By Distance Mag. Time & Date
Minimum magnitude displayed is 2.5.

Coastal Water Temperatures

Sted Temperatur

Stations

Nearby Weather Stations

Stasjonens lokasjon Temp. Nedkjølingseffekt Duggpunkt Fuktighet Vind Precip. H.o.h Oppdatert Type
                   

Watches & Warnings

There are currently no watches in effect.